Time;durP1;ratioP1;P1;durP2;ratioP2;P2;SDS_P1;SDS_P2;PMS_P1;PMS_P2;Temp;Humidity;BMP_temperature;BMP_pressure;BME280_temperature;BME280_humidity;BME280_pressure;Samples;Min_cycle;Max_cycle;Signal;HPM_P1;HPM_P2
2021/03/21 00:00:39;;;;;;;46.10;21.17;;;;;;;-0.36;60.67;100726.88;2312760;76;33966;-64
2021/03/21 00:03:45;;;;;;;42.13;18.95;;;;;;;-0.34;60.39;100716.36;2312789;76;27930;-66
2021/03/21 00:06:51;;;;;;;36.90;18.45;;;;;;;-0.29;60.59;100711.09;2313148;76;27897;-62
2021/03/21 00:10:00;;;;;;;42.45;20.02;;;;;;;-0.24;60.51;100709.33;2313246;76;29680;-65
2021/03/21 00:13:12;;;;;;;42.55;18.00;;;;;;;-0.22;60.27;100702.31;2313067;76;32028;-63
2021/03/21 00:16:21;;;;;;;41.35;20.45;;;;;;;-0.19;60.28;100692.69;2313064;76;34047;-65
2021/03/21 00:19:27;;;;;;;44.05;22.62;;;;;;;-0.11;60.39;100687.84;2313101;76;28736;-62
2021/03/21 00:22:32;;;;;;;44.45;21.07;;;;;;;-0.06;60.28;100680.84;2304936;76;27931;-62
2021/03/21 00:25:41;;;;;;;42.58;21.45;;;;;;;-0.02;60.17;100678.65;2301238;77;29684;-62
2021/03/21 00:28:49;;;;;;;33.73;16.50;;;;;;;0.02;60.18;100676.43;2301556;77;32022;-62
2021/03/21 00:31:54;;;;;;;;;;;;;;;0.09;60.17;100672.03;2304357;77;33954;-63
2021/03/21 00:35:00;;;;;;;32.55;14.95;;;;;;;0.11;59.89;100670.28;2268848;77;29160;-61
2021/03/21 00:38:09;;;;;;;34.78;15.83;;;;;;;0.13;60.05;100669.84;2302431;77;27860;-62
2021/03/21 00:41:14;;;;;;;44.20;20.57;;;;;;;0.13;59.71;100660.20;2301344;77;29783;-66
2021/03/21 00:44:23;;;;;;;36.55;17.15;;;;;;;0.16;59.86;100650.09;2301366;77;32036;-61
2021/03/21 00:47:31;;;;;;;44.42;19.45;;;;;;;0.17;59.71;100647.89;2301347;77;33956;-62
2021/03/21 00:50:41;;;;;;;46.75;18.48;;;;;;;0.19;59.72;100634.28;2301428;77;30052;-62
2021/03/21 00:53:49;;;;;;;51.75;23.22;;;;;;;0.20;59.69;100636.05;2301459;77;27938;-65
2021/03/21 00:56:56;;;;;;;43.05;20.02;;;;;;;0.24;59.72;100623.31;2302685;77;28807;-61
2021/03/21 01:00:07;;;;;;;37.15;18.42;;;;;;;0.25;59.61;100612.31;2301427;77;32034;-62
2021/03/21 01:03:14;;;;;;;77.82;34.88;;;;;;;0.28;59.78;100607.91;2301049;77;33996;-62
2021/03/21 01:06:20;;;;;;;42.65;19.40;;;;;;;0.30;59.75;100596.06;2302337;77;30035;-63
2021/03/21 01:09:28;;;;;;;29.05;15.83;;;;;;;0.34;59.63;100585.06;2301565;77;27974;-63
2021/03/21 01:12:33;;;;;;;38.70;19.95;;;;;;;0.33;59.77;100576.72;2301327;77;29825;-66
2021/03/21 01:15:44;;;;;;;24.95;14.38;;;;;;;0.32;59.64;100565.31;2301066;77;32026;-67
2021/03/21 01:18:53;;;;;;;30.82;17.32;;;;;;;0.28;59.70;100567.06;2301336;77;33881;-67
2021/03/21 01:22:00;;;;;;;31.15;17.37;;;;;;;0.29;59.64;100554.33;2302675;77;30097;-67
2021/03/21 01:25:07;;;;;;;32.53;18.07;;;;;;;0.27;59.78;100544.23;2305397;77;27938;-67
2021/03/21 01:28:28;;;;;;;46.13;24.27;;;;;;;0.17;59.71;100528.48;2305458;77;29754;-62
2021/03/21 01:31:35;;;;;;;125.18;58.30;;;;;;;0.23;59.87;100529.76;2305520;77;31126;-63
2021/03/21 01:34:42;;;;;;;;;;;;;;;0.22;59.96;100518.36;2308285;77;34895;-63
2021/03/21 01:37:46;;;;;;;83.50;38.48;;;;;;;0.22;59.75;100514.83;2305680;77;29322;-63
2021/03/21 01:40:55;;;;;;;83.95;38.88;;;;;;;0.18;59.78;100511.77;2305496;77;27904;-62
2021/03/21 01:44:06;;;;;;;72.12;34.13;;;;;;;0.19;59.85;100505.62;2305485;77;29083;-68
2021/03/21 01:47:36;;;;;;;50.35;24.70;;;;;;;0.16;59.77;100505.20;2305469;77;32112;-62
2021/03/21 01:50:55;;;;;;;68.07;29.12;;;;;;;0.16;59.89;100493.34;2305656;77;33126;-61
2021/03/21 01:54:07;;;;;;;84.30;35.68;;;;;;;0.19;59.97;100477.53;2305826;77;30093;-63
2021/03/21 01:57:15;;;;;;;81.37;35.60;;;;;;;0.21;59.88;100466.97;2305942;76;27933;-62
2021/03/21 02:00:22;;;;;;;67.58;29.55;;;;;;;0.21;59.91;100458.64;2305759;77;29719;-62
2021/03/21 02:03:31;;;;;;;48.13;20.65;;;;;;;0.21;59.89;100445.47;2305937;77;32053;-63
2021/03/21 02:06:44;;;;;;;43.28;19.80;;;;;;;0.20;59.81;100445.45;2305894;77;33098;-63
2021/03/21 02:10:12;;;;;;;55.03;24.47;;;;;;;0.17;59.84;100441.55;2304614;77;29225;-63
2021/03/21 02:13:29;;;;;;;72.70;31.82;;;;;;;0.20;60.18;100436.23;2305885;77;27850;-61
2021/03/21 02:16:43;;;;;;;35.98;15.43;;;;;;;0.22;60.00;100422.62;2305980;77;29692;-60
2021/03/21 02:20:11;;;;;;;38.65;18.25;;;;;;;0.24;59.98;100428.34;2305226;77;32035;-60
2021/03/21 02:23:39;;;;;;;44.08;18.48;;;;;;;0.26;60.11;100416.00;2302292;76;33983;-62
2021/03/21 02:27:23;;;;;;;41.23;19.60;;;;;;;0.32;60.18;100412.91;2301233;77;29187;-62
2021/03/21 02:30:39;;;;;;;34.23;16.25;;;;;;;0.35;60.10;100411.58;2300831;77;27861;-65
2021/03/21 02:33:56;;;;;;;31.15;15.83;;;;;;;0.39;60.08;100403.64;2302246;77;28818;-62
2021/03/21 02:37:47;;;;;;;57.90;29.55;;;;;;;0.44;60.18;100395.70;2292280;77;31144;-61
2021/03/21 02:41:06;;;;;;;33.90;14.43;;;;;;;0.48;60.17;100396.12;2269167;77;33383;-63
2021/03/21 02:44:36;;;;;;;35.48;15.50;;;;;;;0.53;60.10;100385.11;2300006;77;29147;-63
2021/03/21 02:47:47;;;;;;;45.50;20.62;;;;;;;0.53;59.82;100378.52;2299239;77;27914;-63
2021/03/21 02:51:01;;;;;;;424.90;148.85;;;;;;;0.53;59.76;100371.93;2266023;77;29733;-62
2021/03/21 02:54:17;;;;;;;137.00;81.70;;;;;;;0.55;59.71;100354.77;2299054;77;31555;-62
2021/03/21 02:57:26;;;;;;;33.83;24.65;;;;;;;0.55;59.97;100341.16;2300529;77;33924;-64
2021/03/21 03:00:40;;;;;;;18.42;9.60;;;;;;;0.46;59.79;100316.18;2302062;77;29132;-62
2021/03/21 03:03:50;;;;;;;13.35;7.62;;;;;;;0.58;59.67;100325.30;2300892;77;27972;-62
2021/03/21 03:07:05;;;;;;;15.40;7.55;;;;;;;0.62;59.76;100313.41;2301223;77;28762;-64
2021/03/21 03:10:20;;;;;;;17.30;7.53;;;;;;;0.63;59.81;100308.58;2301216;77;31172;-62
2021/03/21 03:13:35;;;;;;;14.50;7.83;;;;;;;0.67;59.74;100307.21;2300899;77;33982;-62
2021/03/21 03:16:55;;;;;;;14.05;8.30;;;;;;;0.69;59.74;100296.67;2301228;77;29162;-62
2021/03/21 03:20:35;;;;;;;12.45;7.03;;;;;;;0.71;59.63;100291.80;2301077;77;27964;-64
2021/03/21 03:24:04;;;;;;;13.85;7.45;;;;;;;0.75;59.74;100280.34;2304271;76;29718;-62
2021/03/21 03:27:25;;;;;;;13.93;7.67;;;;;;;0.82;59.45;100275.88;2338751;76;27874;-62
2021/03/21 03:31:07;;;;;;;16.35;7.17;;;;;;;0.81;59.65;100281.19;2283078;77;28619;-61
2021/03/21 03:34:15;;;;;;;15.65;8.13;;;;;;;0.84;59.61;100268.84;2299769;77;28043;-63
2021/03/21 03:37:22;;;;;;;16.57;7.72;;;;;;;0.86;59.60;100254.30;2269678;77;31196;-63
2021/03/21 03:40:31;;;;;;;15.48;7.75;;;;;;;0.87;59.71;100256.94;2269724;77;33100;-61
2021/03/21 03:44:04;;;;;;;12.88;7.05;;;;;;;0.91;59.79;100253.36;2092455;76;30805;-66
2021/03/21 03:47:24;;;;;;;13.15;7.00;;;;;;;0.93;59.77;100234.90;2096700;84;28121;-67
2021/03/21 03:50:55;;;;;;;12.85;8.03;;;;;;;0.94;59.49;100226.52;2100188;84;28784;-67
2021/03/21 03:54:23;;;;;;;13.08;7.72;;;;;;;0.90;59.42;100229.22;2041623;84;31167;-67
2021/03/21 03:57:30;;;;;;;13.25;7.62;;;;;;;0.87;59.38;100223.98;2078435;85;34465;-66
2021/03/21 04:00:44;;;;;;;14.53;7.92;;;;;;;0.87;59.42;100220.02;2103414;84;28857;-67
2021/03/21 04:03:58;;;;;;;16.62;8.93;;;;;;;0.87;59.42;100209.90;2093368;84;27742;-66
2021/03/21 04:07:26;;;;;;;13.90;8.35;;;;;;;0.87;59.52;100203.30;2064369;86;28827;-67
2021/03/21 04:10:33;;;;;;;14.73;8.70;;;;;;;0.90;59.68;100198.89;2036875;86;33495;-63
2021/03/21 04:13:59;;;;;;;15.35;8.83;;;;;;;0.90;59.55;100197.58;1973471;89;33111;-65
2021/03/21 04:17:19;;;;;;;21.93;10.35;;;;;;;0.90;59.41;100189.66;2031328;86;36804;-64
2021/03/21 04:20:32;;;;;;;17.23;10.13;;;;;;;0.90;59.37;100187.45;2021625;86;27696;-64
2021/03/21 04:23:49;;;;;;;17.70;10.23;;;;;;;0.89;59.30;100180.00;1981890;89;28985;-66
2021/03/21 04:27:18;;;;;;;18.70;9.53;;;;;;;0.93;59.03;100175.55;2334380;76;28058;-63
2021/03/21 04:30:34;;;;;;;13.95;8.48;;;;;;;0.90;59.37;100169.88;2228899;79;28082;-65
2021/03/21 04:33:46;;;;;;;16.82;9.73;;;;;;;0.92;59.20;100171.17;2268483;78;29032;-65
2021/03/21 04:36:48;;;;;;;15.25;9.58;;;;;;;0.95;59.27;100170.25;2257870;78;31565;-64
2021/03/21 04:39:52;;;;;;;18.75;10.03;;;;;;;0.98;59.27;100163.19;2228055;79;33209;-63
2021/03/21 04:43:08;;;;;;;18.57;9.60;;;;;;;1.03;58.98;100164.45;2268370;78;29481;-64
2021/03/21 04:46:15;;;;;;;16.57;9.60;;;;;;;1.02;59.17;100154.33;2213384;79;27568;-64
2021/03/21 04:49:19;;;;;;;14.33;8.98;;;;;;;1.06;59.21;100156.50;2264798;78;28832;-63
2021/03/21 04:52:43;;;;;;;18.85;9.23;;;;;;;1.04;59.11;100143.77;2284847;77;31197;-64
2021/03/21 04:55:50;;;;;;;17.07;9.50;;;;;;;1.03;59.11;100140.25;2294646;77;33618;-64
2021/03/21 04:59:01;;;;;;;15.30;9.25;;;;;;;1.04;59.31;100130.58;2297736;77;28858;-65
2021/03/21 05:02:20;;;;;;;16.52;9.10;;;;;;;1.09;59.40;100130.05;2275787;77;27762;-64
2021/03/21 05:05:33;;;;;;;11.85;8.43;;;;;;;1.13;59.67;100128.27;2266299;77;28907;-65
2021/03/21 05:08:43;;;;;;;20.40;9.13;;;;;;;1.15;59.84;100124.70;2300488;77;31137;-66
2021/03/21 05:11:56;;;;;;;13.80;8.38;;;;;;;1.14;59.99;100125.59;2281925;77;33257;-63
2021/03/21 05:15:09;;;;;;;21.20;10.03;;;;;;;1.14;60.06;100123.42;2256475;78;28856;-65
2021/03/21 05:18:43;;;;;;;16.85;8.68;;;;;;;1.15;60.24;100115.94;2240297;78;27864;-68
2021/03/21 05:22:22;;;;;;;16.15;8.98;;;;;;;1.16;60.27;100117.68;2254812;78;29195;-63
2021/03/21 05:25:37;;;;;;;15.83;9.75;;;;;;;1.17;60.57;100115.01;2239351;78;31250;-63
2021/03/21 05:29:13;;;;;;;13.03;9.33;;;;;;;1.15;60.94;100107.55;2147586;81;33105;-62
2021/03/21 05:32:20;;;;;;;15.43;9.95;;;;;;;1.15;61.22;100113.30;2229017;79;28864;-63
2021/03/21 05:35:27;;;;;;;19.70;10.55;;;;;;;1.16;61.62;100097.43;2246912;79;27782;-63
2021/03/21 05:38:58;;;;;;;20.83;8.90;;;;;;;1.19;61.73;100090.80;2226917;77;27624;-66
2021/03/21 05:42:41;;;;;;;15.50;8.90;;;;;;;1.14;61.62;100086.48;2177325;80;28223;-66
2021/03/21 05:46:19;;;;;;;21.25;9.80;;;;;;;1.16;61.84;100084.23;2217513;80;28666;-64
2021/03/21 05:50:01;;;;;;;15.40;8.78;;;;;;;1.19;61.79;100076.71;2213963;80;31161;-65
2021/03/21 05:53:33;;;;;;;16.42;9.48;;;;;;;1.25;62.04;100081.02;2183952;80;33603;-64
2021/03/21 05:56:43;;;;;;;14.18;9.23;;;;;;;1.26;61.93;100081.02;2178955;80;28540;-65
2021/03/21 06:00:11;;;;;;;16.87;10.23;;;;;;;1.36;62.01;100076.02;2294738;77;27725;-64
2021/03/21 06:03:53;;;;;;;19.73;10.80;;;;;;;1.31;61.81;100073.91;2228487;78;27707;-64
2021/03/21 06:07:03;;;;;;;16.55;10.40;;;;;;;1.38;62.09;100068.09;2242643;77;28650;-65
2021/03/21 06:10:40;;;;;;;17.82;11.05;;;;;;;1.45;62.04;100068.40;2243751;77;33476;-65
2021/03/21 06:14:37;;;;;;;16.42;10.15;;;;;;;1.50;62.10;100052.05;2183130;80;33168;-64
2021/03/21 06:18:01;;;;;;;21.85;12.40;;;;;;;1.56;62.10;100059.45;2189294;78;28544;-65
2021/03/21 06:21:43;;;;;;;20.45;12.05;;;;;;;1.59;62.03;100051.45;2206110;80;27825;-64
2021/03/21 06:25:18;;;;;;;22.10;11.95;;;;;;;1.61;62.08;100042.63;2217689;80;30335;-64
2021/03/21 06:28:49;;;;;;;21.20;10.60;;;;;;;1.63;62.20;100038.63;2218039;80;31148;-63
2021/03/21 06:32:26;;;;;;;20.05;10.65;;;;;;;1.65;62.13;100031.13;2211220;80;33120;-66
2021/03/21 06:36:12;;;;;;;24.47;12.82;;;;;;;1.69;62.17;100028.41;2178794;78;28940;-65
2021/03/21 06:39:54;;;;;;;19.80;10.87;;;;;;;1.70;62.25;100015.62;2192925;80;27723;-64
2021/03/21 06:43:44;;;;;;;17.45;11.60;;;;;;;1.76;62.29;100014.21;2216683;80;28831;-65
2021/03/21 06:47:14;;;;;;;18.65;11.50;;;;;;;1.79;62.28;100005.78;2183892;78;32322;-65
2021/03/21 06:50:58;;;;;;;18.17;11.70;;;;;;;1.86;62.27;100006.53;2226265;78;33263;-64
2021/03/21 06:54:30;;;;;;;23.80;12.63;;;;;;;1.90;62.23;100004.72;2154796;81;28863;-64
2021/03/21 06:58:11;;;;;;;20.32;11.45;;;;;;;1.98;62.20;100010.72;2179451;80;27672;-64
2021/03/21 07:01:46;;;;;;;22.77;12.88;;;;;;;2.00;62.26;99999.67;2208772;80;28693;-65
2021/03/21 07:05:11;;;;;;;21.40;13.43;;;;;;;2.05;62.23;99995.62;2180679;80;31140;-66
2021/03/21 07:08:41;;;;;;;23.35;11.68;;;;;;;2.10;62.43;99989.80;2181493;80;33568;-64
2021/03/21 07:12:07;;;;;;;25.65;13.78;;;;;;;2.14;62.77;99987.53;2206621;80;31194;-64
2021/03/21 07:15:29;;;;;;;19.27;12.53;;;;;;;2.18;63.07;99983.89;2214397;80;36802;-62
2021/03/21 07:19:27;;;;;;;27.07;16.80;;;;;;;2.24;63.15;99977.61;2204859;80;28836;-62
2021/03/21 07:23:20;;;;;;;30.50;17.17;;;;;;;2.27;63.18;99973.59;2190908;80;31181;-63
2021/03/21 07:27:07;;;;;;;23.27;12.50;;;;;;;2.33;63.31;99967.30;2194970;80;33127;-61
2021/03/21 07:30:24;;;;;;;21.68;13.85;;;;;;;2.40;63.35;99961.84;2202626;80;28131;-63
2021/03/21 07:33:57;;;;;;;20.20;12.85;;;;;;;2.51;63.30;99958.97;2202777;80;27647;-63
2021/03/21 07:37:28;;;;;;;23.25;13.78;;;;;;;2.65;63.25;99941.95;2213412;80;29763;-64
2021/03/21 07:40:56;;;;;;;21.93;13.28;;;;;;;2.84;63.26;99942.38;2215833;80;31249;-64
2021/03/21 07:44:22;;;;;;;20.75;14.35;;;;;;;3.02;63.14;99928.72;2183302;80;33129;-64
2021/03/21 07:47:38;;;;;;;26.05;16.15;;;;;;;3.21;63.21;99913.70;2202634;80;28858;-64
2021/03/21 07:50:52;;;;;;;19.95;12.82;;;;;;;3.54;63.10;99912.84;2179691;80;27638;-64
2021/03/21 07:54:08;;;;;;;20.60;12.68;;;;;;;3.69;62.70;99909.77;2175544;80;28049;-64
2021/03/21 07:57:42;;;;;;;20.15;13.80;;;;;;;3.81;62.43;99909.89;2190570;80;31222;-63
2021/03/21 08:00:46;;;;;;;21.33;14.45;;;;;;;3.97;62.18;99908.13;2223943;80;33123;-64
2021/03/21 08:04:26;;;;;;;18.17;12.60;;;;;;;4.05;62.06;99910.12;2182807;81;29726;-63
2021/03/21 08:07:35;;;;;;;15.80;12.18;;;;;;;4.06;61.79;99901.22;2206403;80;27632;-63
2021/03/21 08:10:39;;;;;;;20.12;13.43;;;;;;;4.08;61.87;99891.00;2165236;81;29021;-64
2021/03/21 08:13:45;;;;;;;24.73;13.87;;;;;;;4.13;61.83;99888.20;2201940;80;31130;-64
2021/03/21 08:16:52;;;;;;;19.60;12.90;;;;;;;4.19;61.80;99881.41;2162199;81;33547;-64
2021/03/21 08:20:02;;;;;;;20.75;12.37;;;;;;;4.28;61.82;99881.59;2208478;80;28897;-64
2021/03/21 08:23:21;;;;;;;32.60;17.25;;;;;;;4.38;61.80;99882.18;2143493;81;28076;-62
2021/03/21 08:26:30;;;;;;;29.52;14.70;;;;;;;4.46;62.12;99881.47;2184690;81;28828;-62
2021/03/21 08:30:12;;;;;;;21.07;12.78;;;;;;;4.45;61.97;99883.70;2179508;81;31162;-63
2021/03/21 08:33:36;;;;;;;19.52;12.68;;;;;;;4.41;62.19;99876.31;2180912;81;33122;-62
2021/03/21 08:36:40;;;;;;;19.77;13.10;;;;;;;4.38;62.38;99867.59;2221610;80;29668;-63
2021/03/21 08:39:47;;;;;;;20.77;14.75;;;;;;;4.41;62.67;99865.70;2201770;80;27727;-62
2021/03/21 08:43:23;;;;;;;20.08;14.20;;;;;;;4.46;62.84;99864.22;2220330;80;28833;-74
2021/03/21 08:46:28;;;;;;;22.25;14.35;;;;;;;4.49;62.81;99853.97;2188349;79;32118;-64
2021/03/21 08:49:38;;;;;;;22.48;13.75;;;;;;;4.58;63.28;99851.04;2189966;78;33138;-64
2021/03/21 08:52:46;;;;;;;32.90;14.58;;;;;;;4.63;63.08;99843.81;2203596;78;28856;-65
2021/03/21 08:55:48;;;;;;;18.57;12.60;;;;;;;4.70;63.12;99848.45;2163919;81;27666;-64
2021/03/21 08:58:54;;;;;;;20.90;12.70;;;;;;;4.72;62.96;99839.95;2182895;78;28845;-64
2021/03/21 09:02:20;;;;;;;28.98;16.75;;;;;;;4.76;62.79;99828.80;2177966;81;31231;-64
2021/03/21 09:05:23;;;;;;;;;;;;;;;4.70;62.62;99827.23;2178980;81;35470;-65
2021/03/21 09:08:29;;;;;;;19.57;12.63;;;;;;;4.68;62.46;99824.60;2156298;80;28941;-64
2021/03/21 09:11:36;;;;;;;19.00;13.40;;;;;;;4.67;62.51;99818.89;2197352;80;27652;-64
2021/03/21 09:14:39;;;;;;;22.65;14.65;;;;;;;4.66;62.45;99821.13;2162611;81;28900;-65
2021/03/21 09:17:41;;;;;;;19.50;13.83;;;;;;;4.68;62.34;99817.97;2179368;80;33525;-65
2021/03/21 09:20:54;;;;;;;19.30;13.45;;;;;;;4.74;62.55;99822.20;2159915;81;33170;-64
2021/03/21 09:24:08;;;;;;;22.20;15.18;;;;;;;4.72;62.49;99822.70;2193622;80;28927;-65
2021/03/21 09:27:36;;;;;;;25.23;16.85;;;;;;;4.79;62.89;99814.96;2139072;81;27721;-65
2021/03/21 09:30:42;;;;;;;26.12;16.75;;;;;;;4.83;62.88;99810.41;2178111;81;28823;-66
2021/03/21 09:34:25;;;;;;;26.73;17.10;;;;;;;4.78;62.90;99816.36;2171888;81;31107;-67
2021/03/21 09:37:30;;;;;;;26.97;18.02;;;;;;;4.69;62.95;99817.05;2179131;80;33202;-65
2021/03/21 09:40:40;;;;;;;;;;;;;;;4.59;63.30;99820.94;2116488;83;28873;-65
2021/03/21 09:43:47;;;;;;;23.42;16.45;;;;;;;4.53;63.60;99814.50;2219151;80;27617;-65
2021/03/21 09:46:57;;;;;;;27.30;17.50;;;;;;;4.46;63.83;99809.86;2181837;81;30213;-68
2021/03/21 09:50:19;;;;;;;30.43;17.17;;;;;;;4.43;63.96;99813.92;2178654;80;31126;-66
2021/03/21 09:53:47;;;;;;;39.92;28.07;;;;;;;4.33;63.97;99816.47;2180687;80;33119;-65
2021/03/21 09:57:41;;;;;;;45.45;32.05;;;;;;;4.30;64.33;99812.14;2156582;81;28856;-65
2021/03/21 10:00:55;;;;;;;40.12;28.65;;;;;;;4.31;64.48;99799.73;2191950;78;28216;-65
2021/03/21 10:04:02;;;;;;;38.00;27.20;;;;;;;4.35;64.85;99798.27;2184696;80;28843;-65
2021/03/21 10:07:19;;;;;;;34.08;23.42;;;;;;;4.37;64.89;99796.43;2143815;81;31198;-64
2021/03/21 10:10:29;;;;;;;34.98;26.57;;;;;;;4.38;64.98;99792.86;2222513;80;33176;-65
2021/03/21 10:13:39;;;;;;;42.00;31.80;;;;;;;4.35;65.03;99795.61;2158861;81;28866;-65
2021/03/21 10:16:41;;;;;;;34.48;24.07;;;;;;;4.35;65.24;99789.45;2223894;80;28137;-66
2021/03/21 10:19:55;;;;;;;29.95;20.95;;;;;;;4.34;65.51;99787.72;2182781;81;28848;-65
2021/03/21 10:23:01;;;;;;;27.52;18.23;;;;;;;4.33;65.47;99789.95;2195408;80;32309;-67
2021/03/21 10:26:06;;;;;;;34.60;22.00;;;;;;;4.26;65.64;99789.29;2161711;81;33218;-66
2021/03/21 10:29:44;;;;;;;36.65;23.95;;;;;;;4.24;65.79;99789.80;2184704;80;28846;-66
2021/03/21 10:33:04;;;;;;;32.38;21.77;;;;;;;4.21;65.91;99789.44;2047370;84;27697;-65
2021/03/21 10:36:08;;;;;;;33.18;22.70;;;;;;;4.15;66.26;99788.30;2092116;83;29263;-65
2021/03/21 10:39:23;;;;;;;28.87;20.05;;;;;;;4.20;66.51;99778.42;2102786;84;31959;-65
2021/03/21 10:42:47;;;;;;;27.42;19.23;;;;;;;4.24;66.48;99772.08;2126193;82;33116;-66
2021/03/21 10:45:54;;;;;;;30.12;19.65;;;;;;;4.29;66.63;99774.61;2146868;82;28866;-65
2021/03/21 10:49:06;;;;;;;;;;;;;;;;;;;;;
2021/03/21 10:52:27;;;;;;;28.43;18.13;;;;;;;4.47;67.08;99763.84;2251257;77;28130;-65
2021/03/21 10:55:38;;;;;;;26.10;17.17;;;;;;;4.51;67.09;99762.84;2211586;80;27712;-66
2021/03/21 10:58:57;;;;;;;27.37;22.07;;;;;;;4.67;67.39;99763.17;2191907;80;30363;-65
2021/03/21 11:02:23;;;;;;;30.40;20.23;;;;;;;4.84;67.47;99761.72;2204171;80;31125;-68
2021/03/21 11:05:46;;;;;;;27.00;18.13;;;;;;;5.01;67.41;99756.69;2250521;77;27717;-68
2021/03/21 11:08:49;;;;;;;39.95;26.82;;;;;;;5.07;67.34;99749.44;2197543;80;27644;-65
2021/03/21 11:11:53;;;;;;;52.30;39.63;;;;;;;5.23;67.43;99749.29;2188144;80;28779;-63
2021/03/21 11:14:55;;;;;;;76.85;46.37;;;;;;;5.36;67.33;99748.83;2195481;80;30474;-63
2021/03/21 11:18:05;;;;;;;50.70;27.90;;;;;;;5.41;67.31;99729.61;2186606;80;34485;-64
2021/03/21 11:21:18;;;;;;;47.93;27.45;;;;;;;5.54;67.08;99728.22;2199753;80;28537;-65
2021/03/21 11:24:33;;;;;;;46.90;34.00;;;;;;;5.70;67.23;99728.95;2211404;80;27583;-65
2021/03/21 11:27:37;;;;;;;31.23;20.08;;;;;;;5.78;67.17;99718.91;2200603;80;28817;-65
2021/03/21 11:30:56;;;;;;;23.67;17.45;;;;;;;5.88;67.04;99722.92;2211350;80;31185;-66
2021/03/21 11:33:58;;;;;;;22.93;16.82;;;;;;;5.94;67.06;99723.14;2178613;81;33113;-67
2021/03/21 11:37:15;;;;;;;25.88;18.23;;;;;;;5.97;66.80;99714.16;2178960;81;28868;-65
2021/03/21 11:40:25;;;;;;;30.17;18.90;;;;;;;6.03;66.86;99713.95;2179008;81;27639;-65
2021/03/21 11:43:30;;;;;;;23.87;16.93;;;;;;;6.04;66.72;99712.55;2203478;80;28833;-65
2021/03/21 11:46:32;;;;;;;21.87;14.73;;;;;;;5.99;66.46;99713.64;2217298;80;32045;-66
2021/03/21 11:49:34;;;;;;;28.12;20.60;;;;;;;5.95;66.42;99715.56;2217267;80;33124;-65
2021/03/21 11:52:39;;;;;;;34.18;23.40;;;;;;;5.92;66.54;99703.72;2189819;80;28911;-65
2021/03/21 11:55:43;;;;;;;33.75;23.62;;;;;;;5.88;66.36;99706.09;2215683;80;28270;-65
2021/03/21 11:59:02;;;;;;;32.25;25.05;;;;;;;5.83;66.28;99701.44;2217400;80;29030;-65
2021/03/21 12:02:10;;;;;;;38.53;27.13;;;;;;;5.74;66.46;99693.37;2188093;78;31597;-65
2021/03/21 12:05:21;;;;;;;33.65;24.85;;;;;;;5.67;66.63;99693.19;2119936;81;32353;-63
2021/03/21 12:08:40;;;;;;;37.65;26.27;;;;;;;5.66;66.68;99698.10;2117309;82;28926;-64
2021/03/21 12:11:43;;;;;;;32.83;22.07;;;;;;;5.60;66.75;99689.91;2041341;85;27700;-67
2021/03/21 12:14:47;;;;;;;39.63;26.27;;;;;;;5.57;66.66;99685.59;2110317;83;28874;-66
2021/03/21 12:18:02;;;;;;;31.68;22.37;;;;;;;5.54;67.01;99682.20;2103002;83;31230;-66
2021/03/21 12:21:17;;;;;;;39.37;25.87;;;;;;;5.61;67.21;99681.91;2234323;77;27722;-69
2021/03/21 12:24:23;;;;;;;33.83;23.70;;;;;;;5.61;67.23;99681.02;2207882;80;27713;-69
2021/03/21 12:27:53;;;;;;;37.88;23.65;;;;;;;5.62;67.24;99684.96;2195954;80;28823;-68
2021/03/21 12:31:05;;;;;;;32.67;22.73;;;;;;;5.62;67.24;99672.13;2182895;80;27747;-69
2021/03/21 12:34:47;;;;;;;33.05;21.52;;;;;;;5.65;67.46;99675.11;2202160;80;34005;-69
2021/03/21 12:37:59;;;;;;;32.13;20.55;;;;;;;5.67;67.45;99674.59;2178066;81;29962;-68
2021/03/21 12:41:37;;;;;;;37.50;23.95;;;;;;;5.71;67.58;99668.23;2190309;78;27649;-69
2021/03/21 12:44:44;;;;;;;35.45;24.35;;;;;;;5.72;67.64;99661.52;2183544;80;29723;-68
2021/03/21 12:47:56;;;;;;;30.25;19.92;;;;;;;5.67;67.49;99652.89;2176989;80;32047;-69
2021/03/21 12:51:03;;;;;;;29.57;20.52;;;;;;;5.67;67.66;99654.21;2212294;80;33564;-68
2021/03/21 12:54:07;;;;;;;25.75;18.55;;;;;;;5.61;67.62;99652.67;2195753;80;28916;-70
2021/03/21 12:57:12;;;;;;;30.55;21.55;;;;;;;5.64;68.05;99651.67;2205432;80;27699;-69
2021/03/21 13:00:22;;;;;;;34.40;19.70;;;;;;;5.72;68.18;99646.90;2191181;80;29716;-70
2021/03/21 13:03:31;;;;;;;23.55;15.18;;;;;;;5.81;68.29;99650.98;2193648;80;31438;-69
2021/03/21 13:06:33;;;;;;;21.97;14.25;;;;;;;5.91;68.40;99642.17;2213100;80;33334;-68
2021/03/21 13:09:35;;;;;;;22.82;15.13;;;;;;;5.96;68.33;99640.20;2178469;80;28844;-71
2021/03/21 13:12:39;;;;;;;31.02;19.67;;;;;;;5.99;68.13;99638.75;2184958;80;27727;-65
2021/03/21 13:15:42;;;;;;;41.53;25.82;;;;;;;5.97;68.18;99641.05;2208097;80;29816;-68
2021/03/21 13:18:45;;;;;;;38.35;24.35;;;;;;;5.99;68.08;99643.19;2217007;80;31221;-70
2021/03/21 13:21:48;;;;;;;32.78;23.42;;;;;;;5.96;68.03;99643.34;2200846;80;33203;-71
2021/03/21 13:24:50;;;;;;;39.55;27.55;;;;;;;5.88;68.11;99635.20;2224639;80;28949;-70
2021/03/21 13:27:56;;;;;;;47.10;32.05;;;;;;;5.88;68.23;99634.31;2194607;80;27835;-68
2021/03/21 13:31:00;;;;;;;61.42;41.30;;;;;;;5.85;68.24;99632.66;2220362;80;28836;-68
2021/03/21 13:34:02;;;;;;;52.73;36.63;;;;;;;5.85;68.36;99628.67;2184917;81;31130;-71
2021/03/21 13:37:05;;;;;;;33.23;21.82;;;;;;;5.85;68.50;99628.67;2219400;80;33979;-68
2021/03/21 13:40:12;;;;;;;33.92;25.37;;;;;;;5.81;68.30;99623.55;2214361;80;29407;-69
2021/03/21 13:43:18;;;;;;;35.65;23.77;;;;;;;5.76;68.46;99622.41;2220249;80;27725;-67
2021/03/21 13:46:21;;;;;;;33.75;24.10;;;;;;;5.71;68.74;99617.74;2223119;80;28746;-69
2021/03/21 13:49:23;;;;;;;34.05;24.25;;;;;;;5.69;68.72;99620.92;2223868;80;31072;-67
2021/03/21 13:52:26;;;;;;;37.08;25.40;;;;;;;5.72;68.76;99620.33;2222394;80;34034;-69
2021/03/21 13:55:36;;;;;;;32.98;23.20;;;;;;;5.74;68.82;99616.30;2205980;80;28901;-68
2021/03/21 13:58:38;;;;;;;32.80;22.40;;;;;;;5.78;69.03;99606.80;2183389;80;27762;-67
2021/03/21 14:01:40;;;;;;;31.85;20.75;;;;;;;5.87;69.17;99606.88;2203767;80;28827;-67
2021/03/21 14:04:43;;;;;;;26.33;17.95;;;;;;;5.93;69.09;99601.32;2194296;80;31139;-69
2021/03/21 14:07:45;;;;;;;25.57;17.42;;;;;;;6.00;69.20;99593.10;2184863;81;33575;-68
2021/03/21 14:10:51;;;;;;;22.82;16.15;;;;;;;6.03;69.29;99600.95;2184793;80;28953;-67
2021/03/21 14:13:53;;;;;;;24.60;16.90;;;;;;;6.10;69.18;99596.23;2185591;80;27741;-69
2021/03/21 14:16:56;;;;;;;35.55;21.97;;;;;;;6.14;69.31;99604.02;2184499;81;29785;-68
2021/03/21 14:19:58;;;;;;;30.75;19.60;;;;;;;6.16;69.42;99599.50;2182816;80;31147;-67
2021/03/21 14:23:05;;;;;;;47.70;28.17;;;;;;;6.18;69.50;99600.30;2209540;80;33164;-68
2021/03/21 14:26:06;;;;;;;49.63;31.52;;;;;;;6.21;69.43;99600.62;2217670;80;28891;-68
2021/03/21 14:29:09;;;;;;;28.15;17.90;;;;;;;6.22;69.76;99593.92;2194985;80;27604;-68
2021/03/21 14:32:12;;;;;;;27.40;17.17;;;;;;;6.26;69.80;99594.65;2178867;81;28817;-66
2021/03/21 14:35:15;;;;;;;18.48;12.90;;;;;;;6.27;69.79;99592.39;2207423;80;31345;-66
2021/03/21 14:38:21;;;;;;;26.65;16.67;;;;;;;6.28;69.88;99590.61;2193506;80;33843;-67
2021/03/21 14:41:23;;;;;;;16.93;12.18;;;;;;;6.30;69.93;99584.28;2187765;80;28860;-67
2021/03/21 14:44:26;;;;;;;20.88;13.70;;;;;;;6.28;69.96;99587.47;2199879;80;27746;-67
2021/03/21 14:47:28;;;;;;;20.43;13.30;;;;;;;6.26;70.18;99588.00;2200322;80;28645;-65
2021/03/21 14:50:31;;;;;;;55.20;28.38;;;;;;;6.28;70.35;99579.97;2216876;80;31214;-74
2021/03/21 14:53:33;;;;;;;64.53;34.33;;;;;;;6.26;70.44;99585.34;2216780;80;34334;-73
2021/03/21 14:56:35;;;;;;;50.58;26.95;;;;;;;6.25;70.59;99584.94;2217797;80;28856;-72
2021/03/21 14:59:38;;;;;;;17.92;11.45;;;;;;;6.21;70.65;99579.34;2200864;80;27905;-71
2021/03/21 15:02:40;;;;;;;21.07;13.62;;;;;;;6.20;70.96;99579.83;2189499;80;29700;-74
2021/03/21 15:05:43;;;;;;;17.77;11.20;;;;;;;6.18;71.00;99575.52;2178394;81;31176;-71